Time;durP1;ratioP1;P1;durP2;ratioP2;P2;SDS_P1;SDS_P2;PMS_P1;PMS_P2;Temp;Humidity;BMP_temperature;BMP_pressure;BME280_temperature;BME280_humidity;BME280_pressure;Samples;Min_cycle;Max_cycle;Signal;HPM_P1;HPM_P2
2022/10/06 00:00:33;;;;;;;21.40;19.77;;;16.00;91.40;;;;;;4948397;28;20032;-78
2022/10/06 00:03:00;;;;;;;20.65;19.08;;;16.00;91.50;;;;;;4933309;29;20095;-78
2022/10/06 00:05:26;;;;;;;21.52;19.77;;;15.90;91.50;;;;;;4950210;28;20031;-78
2022/10/06 00:07:53;;;;;;;20.60;19.08;;;15.90;91.50;;;;;;4961247;28;20044;-78
2022/10/06 00:10:19;;;;;;;21.33;19.50;;;15.80;91.50;;;;;;4947525;29;20036;-78
2022/10/06 00:12:47;;;;;;;19.50;17.92;;;15.80;91.50;;;;;;4952390;28;20050;-78
2022/10/06 00:15:15;;;;;;;20.65;19.10;;;15.70;91.40;;;;;;4939684;28;20035;-78
2022/10/06 00:17:41;;;;;;;21.48;19.92;;;15.60;91.60;;;;;;4954411;29;20027;-78
2022/10/06 00:20:07;;;;;;;21.33;19.48;;;15.60;91.50;;;;;;4922490;29;20036;-78
2022/10/06 00:22:39;;;;;;;20.65;19.15;;;15.60;91.50;;;;;;4921262;29;20051;-78
2022/10/06 00:25:05;;;;;;;20.13;18.52;;;15.60;91.50;;;;;;4942728;28;20127;-78
2022/10/06 00:27:36;;;;;;;20.60;19.20;;;15.60;91.40;;;;;;4971441;28;20058;-78
2022/10/06 00:30:06;;;;;;;21.10;19.47;;;15.50;91.50;;;;;;4955618;28;20476;-78
2022/10/06 00:32:32;;;;;;;19.52;17.98;;;15.50;91.50;;;;;;4954788;28;20054;-78
2022/10/06 00:34:58;;;;;;;19.73;18.25;;;15.50;91.50;;;;;;4955829;28;20392;-78
2022/10/06 00:37:25;;;;;;;20.67;18.92;;;15.50;91.40;;;;;;4951233;29;20027;-78
2022/10/06 00:39:51;;;;;;;19.55;17.88;;;15.40;91.50;;;;;;4961531;28;20031;-78
2022/10/06 00:42:25;;;;;;;19.73;18.35;;;15.30;91.50;;;;;;4955276;28;20027;-78
2022/10/06 00:44:51;;;;;;;20.00;18.70;;;15.30;91.50;;;;;;4954878;28;20035;-78
2022/10/06 00:47:18;;;;;;;19.85;18.13;;;15.30;91.50;;;;;;4954892;28;20508;-78
2022/10/06 00:49:44;;;;;;;20.27;18.77;;;15.30;91.60;;;;;;4954424;28;20031;-78
2022/10/06 00:52:13;;;;;;;20.05;18.38;;;15.20;91.50;;;;;;4938459;29;20038;-78
2022/10/06 00:54:39;;;;;;;19.77;18.17;;;15.20;91.60;;;;;;4937775;29;20488;-78
2022/10/06 00:57:05;;;;;;;19.77;18.27;;;15.20;91.60;;;;;;4936024;29;20503;-78
2022/10/06 00:59:32;;;;;;;20.30;18.52;;;15.10;91.50;;;;;;4952481;28;20024;-78
2022/10/06 01:02:02;;;;;;;19.90;18.52;;;15.10;91.50;;;;;;4954774;28;20039;-78
2022/10/06 01:04:35;;;;;;;19.10;17.93;;;15.10;91.50;;;;;;4955665;28;20472;-78
2022/10/06 01:07:01;;;;;;;19.75;18.27;;;15.10;91.50;;;;;;4974282;28;20659;-78
2022/10/06 01:09:28;;;;;;;22.50;20.80;;;15.10;91.50;;;;;;4964554;28;20032;-79
2022/10/06 01:11:56;;;;;;;21.05;19.17;;;15.10;91.30;;;;;;4938057;29;20514;-78
2022/10/06 01:14:22;;;;;;;19.92;18.48;;;15.10;91.20;;;;;;4954162;28;20384;-78
2022/10/06 01:16:52;;;;;;;19.77;18.27;;;15.00;91.20;;;;;;4953935;28;20043;-78
2022/10/06 01:19:46;;;;;;;20.23;18.85;;;15.00;91.30;;;;;;4928171;29;20024;-78
2022/10/06 01:22:13;;;;;;;18.40;16.90;;;14.90;91.30;;;;;;4935947;29;20461;-78
2022/10/06 01:24:39;;;;;;;19.20;17.90;;;14.90;91.40;;;;;;4935370;29;20362;-78
2022/10/06 01:27:05;;;;;;;19.58;18.02;;;14.90;91.40;;;;;;4938147;28;20038;-78
2022/10/06 01:29:32;;;;;;;18.73;17.42;;;14.80;91.50;;;;;;4938401;29;20416;-78
2022/10/06 01:31:58;;;;;;;18.90;17.23;;;14.70;91.50;;;;;;4954003;28;20051;-78
2022/10/06 01:34:25;;;;;;;20.20;18.50;;;14.80;91.50;;;;;;4953581;29;20032;-78
2022/10/06 01:36:51;;;;;;;20.20;18.75;;;14.70;91.40;;;;;;4970857;28;20350;-78
2022/10/06 01:39:17;;;;;;;18.67;17.27;;;14.70;91.30;;;;;;4952744;28;20031;-78
2022/10/06 01:41:46;;;;;;;19.85;18.58;;;14.70;91.30;;;;;;4954202;28;20376;-78
2022/10/06 01:44:15;;;;;;;20.23;18.52;;;14.70;91.30;;;;;;4953867;29;20062;-78
2022/10/06 01:46:41;;;;;;;20.77;18.83;;;14.70;91.30;;;;;;4937803;28;20039;-78
2022/10/06 01:49:07;;;;;;;19.90;18.17;;;14.70;91.30;;;;;;4955446;28;20054;-78
2022/10/06 01:51:33;;;;;;;21.17;19.65;;;14.60;91.30;;;;;;4947434;29;20031;-78
2022/10/06 01:53:59;;;;;;;21.02;19.40;;;14.60;91.30;;;;;;4942817;29;20062;-78
2022/10/06 01:56:25;;;;;;;19.83;18.30;;;14.60;91.40;;;;;;4954995;29;20027;-78
2022/10/06 01:58:51;;;;;;;20.02;18.45;;;14.50;91.30;;;;;;4954863;28;20030;-78
2022/10/06 02:01:18;;;;;;;20.80;19.17;;;14.50;91.30;;;;;;4964779;28;20489;-78
2022/10/06 02:03:44;;;;;;;19.85;18.20;;;14.50;91.30;;;;;;4956136;28;20039;-77
2022/10/06 02:06:10;;;;;;;18.98;17.58;;;14.50;91.40;;;;;;4950526;28;20393;-79
2022/10/06 02:08:36;;;;;;;18.63;17.17;;;14.40;91.40;;;;;;4946400;28;20044;-79
2022/10/06 02:11:09;;;;;;;16.75;15.30;;;14.30;91.60;;;;;;4950500;29;20031;-78
2022/10/06 02:13:36;;;;;;;18.80;16.92;;;14.30;91.60;;;;;;4953825;29;20376;-78
2022/10/06 02:16:05;;;;;;;20.38;18.63;;;14.40;91.50;;;;;;4952360;28;20043;-79
2022/10/06 02:18:34;;;;;;;19.75;18.38;;;14.30;91.40;;;;;;4951246;28;20031;-78
2022/10/06 02:21:01;;;;;;;19.73;18.25;;;14.30;91.50;;;;;;4953548;29;20035;-78
2022/10/06 02:23:27;;;;;;;19.08;17.58;;;14.30;91.30;;;;;;4952529;29;20039;-79
2022/10/06 02:26:00;;;;;;;19.25;18.00;;;14.30;91.20;;;;;;4936138;28;20051;-79
2022/10/06 02:28:26;;;;;;;17.92;16.50;;;14.20;91.30;;;;;;4935205;29;20047;-79
2022/10/06 02:30:52;;;;;;;17.42;16.23;;;14.10;91.50;;;;;;4948570;28;20043;-79
2022/10/06 02:33:18;;;;;;;18.33;16.83;;;14.10;91.70;;;;;;4952993;29;20062;-78
2022/10/06 02:35:45;;;;;;;18.50;16.67;;;14.00;91.80;;;;;;4963972;28;20039;-79
2022/10/06 02:38:11;;;;;;;17.83;16.17;;;14.00;91.70;;;;;;4952691;28;20042;-78
2022/10/06 02:40:37;;;;;;;16.42;15.13;;;13.90;91.80;;;;;;4949925;28;20523;-79
2022/10/06 02:43:03;;;;;;;17.25;16.10;;;13.90;91.70;;;;;;4950171;28;20028;-78
2022/10/06 02:45:30;;;;;;;17.05;15.75;;;13.90;91.70;;;;;;4960162;28;20039;-79
2022/10/06 02:47:56;;;;;;;17.13;15.93;;;13.90;91.60;;;;;;4953932;28;20050;-78
2022/10/06 02:50:22;;;;;;;18.48;17.05;;;13.90;91.50;;;;;;4954652;28;20035;-78
2022/10/06 02:52:48;;;;;;;18.40;16.75;;;13.90;91.50;;;;;;4953756;28;20473;-78
2022/10/06 02:55:14;;;;;;;18.08;16.92;;;13.90;91.50;;;;;;4951917;29;20031;-78
2022/10/06 02:57:40;;;;;;;18.23;16.75;;;13.90;91.50;;;;;;4952292;28;20036;-79
2022/10/06 03:00:07;;;;;;;18.10;16.90;;;13.80;91.50;;;;;;4961408;28;20055;-79
2022/10/06 03:02:33;;;;;;;16.85;15.73;;;13.90;91.40;;;;;;4929549;28;20043;-79
2022/10/06 03:04:59;;;;;;;19.27;17.60;;;13.90;91.30;;;;;;4972631;28;20103;-79
2022/10/06 03:07:25;;;;;;;18.10;17.10;;;13.90;91.20;;;;;;4950186;28;20050;-78
2022/10/06 03:09:51;;;;;;;17.35;15.93;;;14.00;91.20;;;;;;4948071;28;20369;-79
2022/10/06 03:12:17;;;;;;;18.67;17.35;;;13.90;91.10;;;;;;4953866;28;20039;-78
2022/10/06 03:14:44;;;;;;;18.95;17.17;;;14.00;91.00;;;;;;4951333;28;20078;-79
2022/10/06 03:17:10;;;;;;;21.92;19.83;;;13.90;90.90;;;;;;4950876;28;20035;-78
2022/10/06 03:19:36;;;;;;;19.90;18.35;;;13.90;91.00;;;;;;4948246;29;20039;-79
2022/10/06 03:22:03;;;;;;;18.65;16.92;;;13.90;91.00;;;;;;4934023;28;20059;-79
2022/10/06 03:24:29;;;;;;;18.13;16.73;;;13.80;90.90;;;;;;4949413;29;20465;-79
2022/10/06 03:26:55;;;;;;;19.67;17.05;;;13.80;91.00;;;;;;4933954;29;20492;-79
2022/10/06 03:29:21;;;;;;;17.75;16.38;;;13.70;91.10;;;;;;4937751;29;20438;-79
2022/10/06 03:31:47;;;;;;;17.65;16.35;;;13.60;91.20;;;;;;4947212;28;20040;-79
2022/10/06 03:34:14;;;;;;;17.98;16.33;;;13.50;91.30;;;;;;4954294;29;20046;-78
2022/10/06 03:36:40;;;;;;;18.55;16.90;;;13.50;91.40;;;;;;4952773;28;20051;-79
2022/10/06 03:39:06;;;;;;;17.27;15.82;;;13.50;91.30;;;;;;4935572;29;20187;-79
2022/10/06 03:41:34;;;;;;;18.02;16.63;;;13.40;91.30;;;;;;4952750;28;20032;-79
2022/10/06 03:44:00;;;;;;;16.83;15.82;;;13.50;91.30;;;;;;4952392;28;20496;-78
2022/10/06 03:46:28;;;;;;;16.58;15.40;;;13.40;91.30;;;;;;4935595;28;20046;-79
2022/10/06 03:48:56;;;;;;;17.33;16.05;;;13.40;91.30;;;;;;4969715;28;20039;-78
2022/10/06 03:51:26;;;;;;;16.35;15.35;;;13.40;91.30;;;;;;4971345;28;20039;-79
2022/10/06 03:53:53;;;;;;;16.98;15.77;;;13.30;91.30;;;;;;4955422;28;20023;-79
2022/10/06 03:56:25;;;;;;;16.65;15.25;;;13.30;91.30;;;;;;4949248;28;20466;-78
2022/10/06 03:58:55;;;;;;;16.48;15.30;;;13.30;91.20;;;;;;4965144;28;20031;-79
2022/10/06 04:01:26;;;;;;;16.48;15.13;;;13.30;91.20;;;;;;4963497;28;20400;-79
2022/10/06 04:03:54;;;;;;;16.50;15.23;;;13.30;91.20;;;;;;4943472;29;20457;-79
2022/10/06 04:06:20;;;;;;;16.77;15.32;;;13.30;91.20;;;;;;4962247;28;20043;-78
2022/10/06 04:08:46;;;;;;;23.45;20.83;;;13.20;91.20;;;;;;4968824;28;20377;-78
2022/10/06 04:11:15;;;;;;;22.58;20.35;;;13.20;91.20;;;;;;4957483;28;20523;-78
2022/10/06 04:13:42;;;;;;;21.77;17.73;;;13.10;91.20;;;;;;4955354;28;20042;-78
2022/10/06 04:16:29;;;;;;;18.15;15.95;;;13.10;91.40;;;;;;4970028;28;20207;-78
2022/10/06 04:18:57;;;;;;;16.05;14.65;;;13.00;91.40;;;;;;4956330;28;20047;-78
2022/10/06 04:21:23;;;;;;;15.73;14.52;;;13.00;91.40;;;;;;4951319;29;20028;-78
2022/10/06 04:23:53;;;;;;;16.15;14.73;;;13.00;91.40;;;;;;4966520;28;20043;-78
2022/10/06 04:26:20;;;;;;;15.93;14.68;;;13.00;91.40;;;;;;4934917;29;20036;-78
2022/10/06 04:28:46;;;;;;;16.90;15.40;;;13.00;91.40;;;;;;4953016;28;20047;-78
2022/10/06 04:31:16;;;;;;;16.38;15.27;;;12.90;91.40;;;;;;4954488;28;20039;-79
2022/10/06 04:33:43;;;;;;;16.60;15.05;;;13.00;94.30;;;;;;4956603;28;20143;-78
2022/10/06 04:36:11;;;;;;;17.50;16.00;;;13.00;92.00;;;;;;4971320;28;20039;-78
2022/10/06 04:38:38;;;;;;;16.52;15.20;;;13.00;91.70;;;;;;4955400;28;20034;-79
2022/10/06 04:41:08;;;;;;;15.95;14.63;;;13.00;91.50;;;;;;4956684;28;20054;-79
2022/10/06 04:43:34;;;;;;;16.60;15.05;;;13.00;91.60;;;;;;4967484;28;20043;-79
2022/10/06 04:46:00;;;;;;;16.10;14.77;;;12.90;91.50;;;;;;4968052;28;20391;-79
2022/10/06 04:48:27;;;;;;;15.57;14.45;;;12.90;91.50;;;;;;4947164;28;20043;-81
2022/10/06 04:50:57;;;;;;;15.60;14.23;;;12.90;91.50;;;;;;4967537;28;20386;-79
2022/10/06 04:53:24;;;;;;;16.27;14.77;;;12.80;91.50;;;;;;4966477;28;20039;-79
2022/10/06 04:56:06;;;;;;;15.93;14.45;;;12.80;91.40;;;;;;4958818;28;20044;-80
2022/10/06 04:58:34;;;;;;;15.43;14.30;;;12.80;91.40;;;;;;4958281;28;20042;-79
2022/10/06 05:01:00;;;;;;;16.08;14.90;;;12.80;91.40;;;;;;4936349;28;20043;-79
2022/10/06 05:03:30;;;;;;;15.63;14.32;;;12.80;91.40;;;;;;4954481;28;20512;-79
2022/10/06 05:06:06;;;;;;;16.67;15.05;;;12.80;91.30;;;;;;4953776;28;20035;-79
2022/10/06 05:08:33;;;;;;;15.98;14.75;;;12.80;91.40;;;;;;4954173;28;20055;-80
2022/10/06 05:11:04;;;;;;;15.63;14.13;;;12.70;91.30;;;;;;4970711;28;20063;-79
2022/10/06 05:13:30;;;;;;;14.43;13.20;;;12.70;91.40;;;;;;4955424;28;20031;-79
2022/10/06 05:16:00;;;;;;;14.25;13.02;;;12.70;91.40;;;;;;4954297;28;20023;-79
2022/10/06 05:18:27;;;;;;;15.05;13.32;;;12.70;91.30;;;;;;4954183;28;20046;-79
2022/10/06 05:20:57;;;;;;;14.77;13.68;;;12.70;91.30;;;;;;4955154;28;20032;-79
2022/10/06 05:23:24;;;;;;;17.15;15.77;;;12.70;91.30;;;;;;4943143;28;20043;-81
2022/10/06 05:25:52;;;;;;;16.42;15.23;;;12.70;91.20;;;;;;4951582;29;20478;-79
2022/10/06 05:28:18;;;;;;;15.50;14.30;;;12.70;91.00;;;;;;4976471;28;20477;-80
2022/10/06 05:31:06;;;;;;;15.35;14.18;;;12.60;91.00;;;;;;4953800;28;20039;-80
2022/10/06 05:33:33;;;;;;;15.30;13.77;;;12.50;91.30;;;;;;4938500;29;20042;-79
2022/10/06 05:36:01;;;;;;;13.82;12.65;;;12.40;91.40;;;;;;4954075;28;20485;-78
2022/10/06 05:38:27;;;;;;;14.25;13.05;;;12.40;91.50;;;;;;4949480;29;20028;-78
2022/10/06 05:41:01;;;;;;;19.92;13.55;;;12.40;91.40;;;;;;4938211;29;20043;-78
2022/10/06 05:43:27;;;;;;;13.93;12.90;;;12.40;91.40;;;;;;4954623;29;20036;-79
2022/10/06 05:45:54;;;;;;;15.90;13.05;;;12.30;91.40;;;;;;4970200;28;20038;-78
2022/10/06 05:48:20;;;;;;;16.50;13.63;;;12.40;91.40;;;;;;4966166;28;20034;-80
2022/10/06 05:50:47;;;;;;;16.50;13.98;;;12.40;91.30;;;;;;4934919;29;20047;-80
2022/10/06 05:53:14;;;;;;;14.48;13.15;;;12.40;91.30;;;;;;4944873;29;20048;-80
2022/10/06 05:55:40;;;;;;;18.10;13.68;;;12.40;91.30;;;;;;4950190;29;20400;-80
2022/10/06 05:58:06;;;;;;;16.17;14.05;;;12.40;91.30;;;;;;4954333;29;20374;-80
2022/10/06 06:00:32;;;;;;;16.75;15.00;;;12.30;91.30;;;;;;4953575;28;20035;-80
2022/10/06 06:02:59;;;;;;;15.20;13.70;;;12.30;91.40;;;;;;4952206;29;20031;-80
2022/10/06 06:05:25;;;;;;;15.63;13.90;;;12.30;91.40;;;;;;4947336;28;20032;-80
2022/10/06 06:07:51;;;;;;;15.73;14.13;;;12.30;91.40;;;;;;4963018;28;20036;-86
2022/10/06 06:10:17;;;;;;;25.85;14.98;;;12.30;91.30;;;;;;4953022;28;20035;-81
2022/10/06 06:12:46;;;;;;;14.52;13.55;;;12.30;91.30;;;;;;4966756;28;20473;-83
2022/10/06 06:17:57;;;;;;;14.35;13.30;;;12.40;91.30;;;;;;4950181;28;20038;-85
2022/10/06 06:20:23;;;;;;;14.70;13.40;;;12.40;91.20;;;;;;4943053;28;20393;-84
2022/10/06 06:22:52;;;;;;;15.00;13.75;;;12.40;91.20;;;;;;4963822;28;20054;-84
2022/10/06 06:25:18;;;;;;;16.42;14.73;;;12.30;91.20;;;;;;4971277;28;20031;-86
2022/10/06 06:27:44;;;;;;;15.45;14.15;;;12.30;91.20;;;;;;4969838;28;20047;-85
2022/10/06 06:30:11;;;;;;;15.15;13.85;;;12.30;91.30;;;;;;4969586;28;20039;-88
2022/10/06 06:32:37;;;;;;;15.07;13.57;;;12.30;91.30;;;;;;4952404;28;20050;-84
2022/10/06 06:35:03;;;;;;;15.40;14.18;;;12.20;91.40;;;;;;4937340;29;20139;-84
2022/10/06 06:37:30;;;;;;;15.55;14.07;;;12.20;91.60;;;;;;4943257;28;20432;-85
2022/10/06 06:39:56;;;;;;;15.00;13.88;;;12.20;91.70;;;;;;4945150;28;20050;-85
2022/10/06 06:42:22;;;;;;;14.68;13.68;;;12.20;91.80;;;;;;4954846;28;20050;-85
2022/10/06 06:44:49;;;;;;;15.80;14.70;;;12.20;91.80;;;;;;4952891;28;20035;-85
2022/10/06 06:47:16;;;;;;;18.63;17.52;;;12.20;91.80;;;;;;4952592;28;20039;-85
2022/10/06 06:49:42;;;;;;;19.63;18.52;;;12.20;92.00;;;;;;4953523;28;20031;-86
2022/10/06 06:52:08;;;;;;;19.80;18.50;;;12.30;92.00;;;;;;4950492;29;20039;-85
2022/10/06 06:54:34;;;;;;;19.55;18.25;;;12.30;92.00;;;;;;4953669;28;20047;-83
2022/10/06 06:57:00;;;;;;;17.88;16.80;;;12.30;92.00;;;;;;4935406;29;20027;-84
2022/10/06 06:59:27;;;;;;;18.15;16.83;;;12.30;92.20;;;;;;4933854;29;20039;-85
2022/10/06 07:01:53;;;;;;;63.70;18.17;;;12.40;92.30;;;;;;4950944;28;20031;-86
2022/10/06 07:04:19;;;;;;;76.82;21.60;;;12.30;92.60;;;;;;4935251;29;20036;-84
2022/10/06 07:06:57;;;;;;;111.63;21.95;;;12.30;92.90;;;;;;4951305;29;20038;-82
2022/10/06 07:09:24;;;;;;;57.83;23.85;;;12.30;93.20;;;;;;4940288;29;20062;-81
2022/10/06 07:11:50;;;;;;;28.92;23.50;;;12.40;93.30;;;;;;4945291;29;20023;-83
2022/10/06 07:14:17;;;;;;;59.35;25.75;;;12.40;93.50;;;;;;4950241;28;20042;-79
2022/10/06 07:25:21;;;;;;;23.75;22.45;;;13.60;94.40;;;;;;4939238;29;20043;-78
2022/10/06 07:27:49;;;;;;;24.05;22.58;;;14.10;93.20;;;;;;4930269;29;20034;-79
2022/10/06 07:30:20;;;;;;;20.77;19.77;;;14.40;92.50;;;;;;4914975;28;20051;-78
2022/10/06 07:32:49;;;;;;;21.23;20.00;;;14.80;92.00;;;;;;4932506;29;20044;-79
2022/10/06 07:35:16;;;;;;;20.60;19.50;;;15.10;91.30;;;;;;4932674;29;20043;-79
2022/10/06 07:37:42;;;;;;;21.85;20.58;;;15.40;91.10;;;;;;4916317;29;20128;-79
2022/10/06 07:40:08;;;;;;;22.30;20.88;;;15.70;90.50;;;;;;4930499;29;20052;-79
2022/10/06 07:42:47;;;;;;;26.00;24.30;;;15.90;90.30;;;;;;4932097;29;20043;-79
2022/10/06 07:48:18;;;;;;;28.92;27.33;;;16.50;89.00;;;;;;4937954;29;20035;-79
2022/10/06 07:50:48;;;;;;;34.13;31.98;;;16.80;86.90;;;;;;4932629;29;20036;-79
2022/10/06 07:53:17;;;;;;;35.08;33.03;;;17.00;85.90;;;;;;4932592;29;20057;-79
2022/10/06 07:55:45;;;;;;;40.15;37.58;;;17.10;85.50;;;;;;4920537;29;20046;-79
2022/10/06 07:58:19;;;;;;;44.30;41.85;;;17.30;84.70;;;;;;4921846;28;20043;-79
2022/10/06 08:00:47;;;;;;;45.22;42.42;;;17.50;84.00;;;;;;4939972;28;20035;-79
2022/10/06 08:03:16;;;;;;;46.00;43.50;;;17.70;83.30;;;;;;4965573;28;20031;-79
2022/10/06 08:05:44;;;;;;;45.95;43.10;;;17.90;82.70;;;;;;4968131;28;20058;-79
2022/10/06 08:08:10;;;;;;;47.38;44.80;;;18.10;82.10;;;;;;4968493;28;20034;-79
2022/10/06 08:10:36;;;;;;;45.08;42.63;;;18.10;81.40;;;;;;4968333;28;20047;-79
2022/10/06 08:13:05;;;;;;;40.97;38.22;;;18.10;81.40;;;;;;4966302;28;20046;-79
2022/10/06 08:15:32;;;;;;;41.60;39.05;;;17.80;82.40;;;;;;4964675;28;20047;-79
2022/10/06 08:17:59;;;;;;;37.83;35.42;;;17.70;83.10;;;;;;4948530;29;20048;-79
2022/10/06 08:20:26;;;;;;;40.28;37.53;;;17.60;83.30;;;;;;4952577;28;20034;-79
2022/10/06 08:22:52;;;;;;;40.80;38.40;;;17.50;83.90;;;;;;4951748;28;20047;-79
2022/10/06 08:25:19;;;;;;;46.70;43.90;;;17.50;84.30;;;;;;4952595;29;20031;-79
2022/10/06 08:27:45;;;;;;;45.13;42.40;;;17.80;83.60;;;;;;4951009;28;20484;-79
2022/10/06 08:30:11;;;;;;;37.60;34.97;;;17.90;83.00;;;;;;4951604;28;20048;-79
2022/10/06 08:32:38;;;;;;;38.28;35.78;;;17.80;83.30;;;;;;4948885;29;20058;-79
2022/10/06 08:35:04;;;;;;;40.05;37.42;;;17.90;83.60;;;;;;4954886;28;20028;-80
2022/10/06 08:37:30;;;;;;;39.72;37.08;;;17.90;83.60;;;;;;4971675;28;20027;-80
2022/10/06 08:39:56;;;;;;;41.08;38.33;;;18.00;84.00;;;;;;4956990;28;20035;-79
2022/10/06 08:42:38;;;;;;;38.47;36.00;;;18.00;83.40;;;;;;4956662;28;20388;-79
2022/10/06 08:45:13;;;;;;;36.38;33.92;;;18.00;82.70;;;;;;4953100;28;20055;-79
2022/10/06 08:47:42;;;;;;;41.60;38.75;;;17.80;83.20;;;;;;4954352;28;20038;-79
2022/10/06 08:50:10;;;;;;;43.67;40.38;;;17.90;83.90;;;;;;4965920;28;20059;-78
2022/10/06 08:52:54;;;;;;;38.83;36.15;;;17.90;83.30;;;;;;4954253;28;20389;-79
2022/10/06 08:55:26;;;;;;;38.67;35.60;;;18.00;83.10;;;;;;4922449;29;20043;-80
2022/10/06 08:57:57;;;;;;;38.60;35.67;;;17.80;82.60;;;;;;4950984;29;20027;-80
2022/10/06 09:00:23;;;;;;;38.38;34.85;;;17.80;83.30;;;;;;4951566;28;20031;-77
2022/10/06 09:02:49;;;;;;;46.45;42.92;;;17.60;82.80;;;;;;4955146;28;20036;-77
2022/10/06 09:05:24;;;;;;;43.97;40.17;;;17.60;81.30;;;;;;4955407;28;20034;-77
2022/10/06 09:07:57;;;;;;;34.63;31.95;;;17.40;80.60;;;;;;4956119;29;20031;-77
2022/10/06 09:10:56;;;;;;;36.45;33.22;;;17.30;81.20;;;;;;4955846;28;20039;-77
2022/10/06 09:13:53;;;;;;;30.55;27.70;;;17.00;80.70;;;;;;4955404;28;20042;-77
2022/10/06 09:16:27;;;;;;;33.53;30.92;;;16.90;82.70;;;;;;4930588;28;20039;-76
2022/10/06 09:19:00;;;;;;;32.42;29.15;;;17.10;82.20;;;;;;4949914;28;20039;-77
2022/10/06 09:21:35;;;;;;;32.92;30.02;;;17.10;82.50;;;;;;4950864;28;20043;-76
2022/10/06 09:24:05;;;;;;;33.53;30.35;;;17.20;82.10;;;;;;4951531;29;20039;-77
2022/10/06 09:26:32;;;;;;;35.55;32.00;;;17.20;81.90;;;;;;4951107;29;20028;-77
2022/10/06 09:28:59;;;;;;;39.72;36.25;;;17.20;82.90;;;;;;4951692;29;20055;-77
2022/10/06 09:31:28;;;;;;;36.17;33.30;;;17.40;81.40;;;;;;4951076;28;20508;-76
2022/10/06 09:34:05;;;;;;;42.63;38.88;;;17.40;81.60;;;;;;4960915;28;20511;-76
2022/10/06 09:36:31;;;;;;;36.83;33.47;;;17.50;81.00;;;;;;4969973;28;20042;-78
2022/10/06 09:38:58;;;;;;;38.40;35.05;;;17.60;81.20;;;;;;4971033;28;20043;-77
2022/10/06 09:41:39;;;;;;;37.00;33.80;;;17.50;80.40;;;;;;4970415;28;20464;-77
2022/10/06 09:44:20;;;;;;;36.78;33.28;;;17.60;81.30;;;;;;4963363;28;20043;-76
2022/10/06 09:46:46;;;;;;;37.78;34.55;;;17.60;81.80;;;;;;4966233;28;20031;-77
2022/10/06 09:49:22;;;;;;;39.83;36.85;;;17.60;81.10;;;;;;4938096;29;20058;-77
2022/10/06 09:52:11;;;;;;;42.53;39.33;;;17.70;81.20;;;;;;4954553;28;20023;-77
2022/10/06 09:54:40;;;;;;;43.90;40.67;;;17.70;79.40;;;;;;4954046;29;20031;-77
2022/10/06 09:57:15;;;;;;;41.13;37.53;;;17.70;79.60;;;;;;4953437;28;20404;-77
2022/10/06 09:59:42;;;;;;;39.28;35.67;;;17.80;80.50;;;;;;4936269;29;20031;-86
2022/10/06 10:02:27;;;;;;;41.25;37.20;;;17.70;82.20;;;;;;4967350;28;20051;-83
2022/10/06 10:04:54;;;;;;;42.92;39.10;;;17.90;81.10;;;;;;4952693;29;20042;-83
2022/10/06 10:07:28;;;;;;;51.95;47.67;;;17.90;80.40;;;;;;4936336;28;20051;-83
2022/10/06 10:10:19;;;;;;;45.67;41.65;;;18.00;80.60;;;;;;4953380;28;20066;-83
2022/10/06 10:12:53;;;;;;;48.22;44.40;;;18.10;82.40;;;;;;4966972;28;20043;-82
2022/10/06 10:15:19;;;;;;;44.22;40.72;;;18.10;79.90;;;;;;4953204;28;20039;-77
2022/10/06 10:18:02;;;;;;;41.42;38.08;;;18.00;80.10;;;;;;4956533;28;20032;-78
2022/10/06 10:20:32;;;;;;;44.05;40.17;;;18.00;80.50;;;;;;4965307;28;20054;-79
2022/10/06 10:23:03;;;;;;;;;;;18.00;81.40;;;;;;4969284;28;20579;-79
2022/10/06 10:25:43;;;;;;;53.35;49.03;;;18.10;81.40;;;;;;4936819;29;19911;-78
2022/10/06 10:28:31;;;;;;;39.72;36.45;;;18.10;79.90;;;;;;4951685;29;20143;-78
2022/10/06 10:31:08;;;;;;;84.03;78.38;;;18.10;81.00;;;;;;4952794;28;20058;-77
2022/10/06 10:34:02;;;;;;;90.30;84.35;;;18.20;79.00;;;;;;4966045;28;20190;-76
2022/10/06 10:37:03;;;;;;;91.68;85.93;;;18.10;75.40;;;;;;4935089;29;20032;-77
2022/10/06 10:39:33;;;;;;;61.15;56.40;;;17.90;76.00;;;;;;4925152;29;20047;-77
2022/10/06 10:42:01;;;;;;;89.78;82.97;;;17.80;74.60;;;;;;4929350;29;20047;-77
2022/10/06 10:44:40;;;;;;;61.20;56.92;;;17.90;76.30;;;;;;4913816;29;20039;-77
2022/10/06 10:47:29;;;;;;;76.97;71.25;;;18.00;73.20;;;;;;4897940;29;20562;-77
2022/10/06 10:50:18;;;;;;;74.32;68.93;;;18.10;75.40;;;;;;4897945;29;20059;-77
2022/10/06 10:52:45;;;;;;;67.65;62.88;;;18.20;76.40;;;;;;4912880;29;20036;-77
2022/10/06 10:55:26;;;;;;;67.53;63.30;;;18.20;74.50;;;;;;4897901;29;20044;-77
2022/10/06 10:57:58;;;;;;;66.47;61.88;;;18.20;75.20;;;;;;4897223;29;20126;-77
2022/10/06 11:00:27;;;;;;;64.32;59.72;;;18.30;74.40;;;;;;4914264;29;20532;-76
2022/10/06 11:02:57;;;;;;;67.93;63.25;;;18.30;73.80;;;;;;4932367;29;20050;-77
2022/10/06 11:05:50;;;;;;;54.13;49.85;;;18.40;71.40;;;;;;4931902;29;20547;-76
2022/10/06 11:08:31;;;;;;;52.33;48.08;;;18.30;73.40;;;;;;4932092;29;20046;-77
2022/10/06 11:10:58;;;;;;;;;;;18.40;74.50;;;;;;4932862;29;20042;-76
2022/10/06 11:13:33;;;;;;;53.90;49.80;;;18.50;73.70;;;;;;4915566;29;20296;-77
2022/10/06 11:16:25;;;;;;;61.60;57.15;;;18.60;72.70;;;;;;4940028;28;20035;-77
2022/10/06 11:19:29;;;;;;;57.50;53.45;;;18.50;72.60;;;;;;4948688;28;20031;-76
2022/10/06 11:21:56;;;;;;;65.18;61.00;;;18.70;75.00;;;;;;4968243;28;20039;-77
2022/10/06 11:24:42;;;;;;;76.43;71.57;;;18.90;74.90;;;;;;4935927;29;20035;-77
2022/10/06 11:27:30;;;;;;;72.22;67.53;;;19.20;73.90;;;;;;4953541;28;20023;-77
2022/10/06 11:30:12;;;;;;;70.78;66.15;;;19.30;71.80;;;;;;4967948;28;20062;-77
2022/10/06 11:33:06;;;;;;;43.45;40.70;;;19.30;71.10;;;;;;4951668;28;20050;-77
2022/10/06 11:35:35;;;;;;;50.17;46.10;;;19.20;69.00;;;;;;4947431;28;20054;-77
2022/10/06 11:38:19;;;;;;;41.63;38.83;;;19.30;67.80;;;;;;4949736;28;20024;-77
2022/10/06 11:40:49;;;;;;;49.25;45.15;;;19.30;68.10;;;;;;4948997;29;20481;-77
2022/10/06 11:43:24;;;;;;;61.30;57.33;;;19.20;68.20;;;;;;4967256;28;20035;-77
2022/10/06 11:45:59;;;;;;;50.90;47.33;;;19.20;67.90;;;;;;4967496;28;20035;-77
2022/10/06 11:48:34;;;;;;;50.88;46.88;;;19.10;68.20;;;;;;4952909;29;20038;-77
2022/10/06 11:51:20;;;;;;;45.53;42.15;;;19.10;70.50;;;;;;4951638;28;20047;-77
2022/10/06 11:53:46;;;;;;;41.60;38.63;;;19.30;66.60;;;;;;4967679;28;20046;-77
2022/10/06 11:56:15;;;;;;;28.50;26.10;;;19.50;67.70;;;;;;4952508;28;20035;-77
2022/10/06 11:58:50;;;;;;;27.95;25.63;;;19.50;63.10;;;;;;4967567;28;20042;-77
2022/10/06 12:01:42;;;;;;;26.48;24.08;;;19.40;65.20;;;;;;4961373;28;20035;-77
2022/10/06 12:04:08;;;;;;;25.38;23.15;;;19.30;62.80;;;;;;4972926;28;20033;-77
2022/10/06 12:06:40;;;;;;;25.73;23.38;;;19.40;61.30;;;;;;4972659;28;20030;-77
2022/10/06 12:09:26;;;;;;;27.52;25.52;;;19.30;61.10;;;;;;4972764;28;20042;-77
2022/10/06 12:11:53;;;;;;;26.65;24.52;;;19.10;62.20;;;;;;4974620;28;20043;-77
2022/10/06 12:14:32;;;;;;;24.88;22.50;;;19.00;63.40;;;;;;4956862;28;20034;-77
2022/10/06 12:17:02;;;;;;;26.10;24.15;;;19.20;64.70;;;;;;4956470;28;20036;-77
2022/10/06 12:19:33;;;;;;;27.75;25.40;;;19.20;60.30;;;;;;4955594;28;20035;-77
2022/10/06 12:22:10;;;;;;;26.83;24.83;;;19.30;61.50;;;;;;4955770;28;20036;-77
2022/10/06 12:24:50;;;;;;;25.55;23.33;;;19.50;61.20;;;;;;4955926;29;20038;-77
2022/10/06 12:27:37;;;;;;;25.52;23.35;;;19.50;61.40;;;;;;4956139;28;20027;-77
2022/10/06 12:30:15;;;;;;;28.73;26.45;;;19.50;59.60;;;;;;4954989;28;20933;-78
2022/10/06 12:32:49;;;;;;;27.95;25.85;;;19.50;60.00;;;;;;4956202;28;20047;-77
2022/10/06 12:35:26;;;;;;;26.15;24.25;;;19.80;58.80;;;;;;4935667;29;20047;-77
2022/10/06 12:37:54;;;;;;;26.88;24.90;;;19.70;57.50;;;;;;4936007;29;20028;-77
2022/10/06 12:40:45;;;;;;;25.08;23.15;;;19.50;57.20;;;;;;4936290;29;20039;-77
2022/10/06 12:43:17;;;;;;;28.70;26.38;;;19.40;57.50;;;;;;4948311;28;20031;-77
2022/10/06 12:45:46;;;;;;;26.02;23.85;;;19.40;57.80;;;;;;4956011;28;20400;-77
2022/10/06 12:48:40;;;;;;;24.55;22.65;;;19.60;57.70;;;;;;4956052;29;20027;-77
2022/10/06 12:51:12;;;;;;;24.75;22.90;;;19.50;57.40;;;;;;4935074;29;20052;-77
2022/10/06 12:54:04;;;;;;;23.45;21.60;;;19.50;56.80;;;;;;4919377;29;20039;-76
2022/10/06 12:56:33;;;;;;;25.45;22.95;;;19.60;58.20;;;;;;4905116;29;20489;-77
2022/10/06 12:59:19;;;;;;;24.33;22.27;;;19.70;57.90;;;;;;4934772;29;20039;-77